Iwanui, Waitara Historical Data
 
Daily Summary for December 19, 2017 Units:  Metric    English   Both
« Previous Day
Next Day »
Daily Weekly Monthly Yearly Custom
  Current: High: Low: Average:
Temperature: 14.1 °C 15.7 °C 14.0 °C 14.7 °C
Dew Point: 11.1 °C 12.5 °C 11.1 °C 11.8 °C
Humidity: 82% 86% 77% 83%
Wind Speed: 5.0km/h 9.7km/h 0.0km/h 4.1km/h
Wind Gust: 11.1km/h 15.8km/h - -
WindSE - - SSE
Pressure: 1009.4 hPa 1010.7 hPa 1009.4 hPa -
Precipitation: 0.0 mm      
Historical Graphs
 
 
Tabular Data for December 19, 2017
Time Temperature Dew Point Pressure Wind Wind Speed Wind Gust Humidity Rainfall Rate (Hourly)
00:02 15.2 °C 12.2 °C 1010.7 hPa SSE 6.1 km/h 14.8 km/h 82% 0.0 mm
00:07 15.2 °C 12.2 °C 1010.4 hPa SSE 7.2 km/h 14.8 km/h 82% 0.0 mm
00:09 15.2 °C 12.2 °C 1010.4 hPa SSE 8.7 km/h 14.8 km/h 82% 0.0 mm
00:14 15.2 °C 12.2 °C 1010.4 hPa SSE 3.5 km/h 13.4 km/h 82% 0.0 mm
00:16 15.2 °C 12.2 °C 1010.4 hPa SSE 5.0 km/h 13.4 km/h 82% 0.0 mm
00:21 15.2 °C 12.2 °C 1010.4 hPa SE 5.0 km/h 13.4 km/h 82% 0.0 mm
00:22 15.2 °C 12.2 °C 1010.4 hPa SSE 5.0 km/h 13.4 km/h 82% 0.0 mm
00:24 15.2 °C 12.2 °C 1010.4 hPa SSE 2.6 km/h 11.1 km/h 82% 0.0 mm
00:29 15.1 °C 12.2 °C 1010.4 hPa South 3.5 km/h 11.1 km/h 83% 0.0 mm
00:32 15.0 °C 12.2 °C 1010.4 hPa SSE 5.0 km/h 11.1 km/h 83% 0.0 mm
00:37 15.0 °C 12.2 °C 1010.4 hPa SSE 7.2 km/h 11.1 km/h 83% 0.0 mm
00:38 15.0 °C 12.2 °C 1010.4 hPa SSE 5.0 km/h 13.4 km/h 83% 0.0 mm
00:42 15.0 °C 12.2 °C 1010.4 hPa SSE 7.2 km/h 13.4 km/h 83% 0.0 mm
00:44 15.0 °C 12.2 °C 1010.4 hPa SSE 5.0 km/h 13.4 km/h 83% 0.0 mm
00:49 15.0 °C 12.2 °C 1010.4 hPa South 5.0 km/h 13.4 km/h 83% 0.0 mm
00:50 15.0 °C 12.2 °C 1010.4 hPa South 5.0 km/h 13.4 km/h 83% 0.0 mm
00:54 14.9 °C 12.4 °C 1010.4 hPa South 6.1 km/h 13.4 km/h 85% 0.0 mm
00:55 14.9 °C 12.4 °C 1010.4 hPa South 6.1 km/h 13.4 km/h 85% 0.0 mm
01:00 14.8 °C 12.3 °C 1010.4 hPa South 7.2 km/h 13.4 km/h 85% 0.0 mm
01:01 14.8 °C 12.5 °C 1010.4 hPa South 7.2 km/h 13.4 km/h 86% 0.0 mm
01:02 14.8 °C 12.5 °C 1010.4 hPa South 7.2 km/h 13.4 km/h 86% 0.0 mm
01:07 14.7 °C 12.4 °C 1010.4 hPa South 6.1 km/h 12.2 km/h 86% 0.0 mm
01:11 14.7 °C 12.4 °C 1010.4 hPa South 8.7 km/h 13.4 km/h 86% 0.0 mm
01:13 14.7 °C 12.4 °C 1010.4 hPa South 9.7 km/h 14.8 km/h 86% 0.0 mm
01:17 14.7 °C 12.4 °C 1010.4 hPa South 6.1 km/h 14.8 km/h 86% 0.0 mm
01:22 14.7 °C 12.4 °C 1010.4 hPa South 8.7 km/h 15.8 km/h 86% 0.0 mm
01:23 14.7 °C 12.4 °C 1010.4 hPa South 6.1 km/h 15.8 km/h 86% 0.0 mm
01:28 14.7 °C 12.2 °C 1010.4 hPa South 6.1 km/h 15.8 km/h 85% 0.0 mm
01:33 14.7 °C 12.1 °C 1010.4 hPa South 3.5 km/h 14.8 km/h 84% 0.0 mm
01:34 14.7 °C 12.1 °C 1010.4 hPa South 5.0 km/h 14.8 km/h 84% 0.0 mm
01:39 14.7 °C 12.1 °C 1010.0 hPa SSE 5.0 km/h 12.2 km/h 84% 0.0 mm
01:40 14.7 °C 12.1 °C 1010.0 hPa SSE 5.0 km/h 12.2 km/h 84% 0.0 mm
01:42 14.7 °C 12.1 °C 1010.0 hPa SSE 2.6 km/h 11.1 km/h 84% 0.0 mm
01:46 14.7 °C 12.1 °C 1010.0 hPa SSE 2.6 km/h 11.1 km/h 84% 0.0 mm
01:51 14.7 °C 11.8 °C 1010.0 hPa SSE 6.1 km/h 9.7 km/h 83% 0.0 mm
01:52 14.8 °C 11.9 °C 1010.0 hPa SSE 5.0 km/h 8.7 km/h 83% 0.0 mm
01:57 14.8 °C 11.8 °C 1010.0 hPa South 2.6 km/h 8.7 km/h 82% 0.0 mm
01:58 14.8 °C 11.8 °C 1010.0 hPa South 3.5 km/h 8.7 km/h 82% 0.0 mm
02:03 14.8 °C 11.8 °C 1010.0 hPa South 5.0 km/h 7.2 km/h 82% 0.0 mm
02:04 14.8 °C 11.8 °C 1010.0 hPa South 2.6 km/h 7.2 km/h 82% 0.0 mm
02:08 14.8 °C 11.8 °C 1010.0 hPa South 3.5 km/h 7.2 km/h 82% 0.0 mm
02:09 14.8 °C 11.8 °C 1010.0 hPa South 2.6 km/h 7.2 km/h 82% 0.0 mm
02:14 14.7 °C 11.7 °C 1010.4 hPa SW 9.7 km/h 13.4 km/h 82% 0.0 mm
02:15 14.6 °C 11.6 °C 1010.4 hPa SW 7.2 km/h 13.4 km/h 82% 0.0 mm
02:17 14.6 °C 11.6 °C 1010.4 hPa SW 6.1 km/h 13.4 km/h 82% 0.0 mm
02:22 14.6 °C 11.8 °C 1010.0 hPa SW 5.0 km/h 13.4 km/h 83% 0.0 mm
02:28 14.7 °C 11.8 °C 1010.0 hPa SW 3.5 km/h 9.7 km/h 83% 0.0 mm
02:30 14.8 °C 12.1 °C 1010.0 hPa Calm   9.7 km/h 84% 0.0 mm
02:34 14.9 °C 12.2 °C 1010.4 hPa Calm   6.1 km/h 84% 0.0 mm
02:39 15.0 °C 12.2 °C 1010.4 hPa South 5.0 km/h 6.1 km/h 83% 0.0 mm
02:40 15.0 °C 12.2 °C 1010.0 hPa South 2.6 km/h 6.1 km/h 83% 0.0 mm
02:45 15.1 °C 12.1 °C 1010.0 hPa South 2.6 km/h 6.1 km/h 82% 0.0 mm
02:48 15.2 °C 12.2 °C 1010.0 hPa South 2.6 km/h 6.1 km/h 82% 0.0 mm
02:51 15.2 °C 12.2 °C 1010.0 hPa Calm   5.0 km/h 82% 0.0 mm
02:56 15.2 °C 11.9 °C 1010.0 hPa South 2.6 km/h 6.1 km/h 81% 0.0 mm
03:01 15.2 °C 11.8 °C 1010.0 hPa SSE 3.5 km/h 6.1 km/h 80% 0.0 mm
03:03 15.7 °C 12.1 °C 1010.0 hPa SSE 2.6 km/h 6.1 km/h 79% 0.0 mm
03:08 15.2 °C 11.2 °C 1009.7 hPa SSE 2.6 km/h 6.1 km/h 77% 0.0 mm
03:13 15.2 °C 11.2 °C 1009.7 hPa SSE 2.6 km/h 5.0 km/h 77% 0.0 mm
03:14 15.2 °C 11.2 °C 1009.7 hPa SSE 2.6 km/h 5.0 km/h 77% 0.0 mm
03:19 15.2 °C 11.2 °C 1009.7 hPa SSE 1.1 km/h 6.1 km/h 77% 0.0 mm
03:20 15.2 °C 11.2 °C 1009.7 hPa SSE 2.6 km/h 6.1 km/h 77% 0.0 mm
03:25 15.2 °C 11.2 °C 1009.7 hPa SSE 2.6 km/h 7.2 km/h 77% 0.0 mm
03:30 15.2 °C 11.4 °C 1009.7 hPa SSE 2.6 km/h 7.2 km/h 78% 0.0 mm
03:31 15.2 °C 11.4 °C 1009.7 hPa SSE 3.5 km/h 7.2 km/h 78% 0.0 mm
03:36 15.1 °C 11.3 °C 1009.7 hPa SE 3.5 km/h 6.1 km/h 78% 0.0 mm
03:38 15.1 °C 11.3 °C 1009.7 hPa SE 3.5 km/h 7.2 km/h 78% 0.0 mm
03:39 15.0 °C 11.4 °C 1009.7 hPa SSE 1.1 km/h 7.2 km/h 79% 0.0 mm
03:44 14.9 °C 11.5 °C 1009.7 hPa SE 3.5 km/h 7.2 km/h 80% 0.0 mm
03:46 14.9 °C 11.5 °C 1009.7 hPa Calm   7.2 km/h 80% 0.0 mm
03:51 14.6 °C 11.4 °C 1009.4 hPa SE 1.1 km/h 5.0 km/h 81% 0.0 mm
03:52 14.6 °C 11.4 °C 1009.4 hPa SE 1.1 km/h 5.0 km/h 81% 0.0 mm
03:57 14.3 °C 11.1 °C 1009.4 hPa Calm   6.1 km/h 81% 0.0 mm
04:02 14.1 °C 11.1 °C 1009.4 hPa ESE 1.1 km/h 6.1 km/h 82% 0.0 mm
04:07 14.0 °C 11.2 °C 1009.4 hPa SE 1.1 km/h 7.2 km/h 83% 0.0 mm
04:09 14.0 °C 11.2 °C 1009.4 hPa SE 3.5 km/h 7.2 km/h 83% 0.0 mm
04:14 14.1 °C 11.4 °C 1009.4 hPa SSE 3.5 km/h 7.2 km/h 84% 0.0 mm
04:19 14.0 °C 11.3 °C 1009.4 hPa SSE 3.5 km/h 7.2 km/h 84% 0.0 mm
04:20 14.0 °C 11.3 °C 1009.4 hPa SSE 3.5 km/h 7.2 km/h 84% 0.0 mm
04:25 14.0 °C 11.3 °C 1009.4 hPa SE 3.5 km/h 6.1 km/h 84% 0.0 mm
04:26 14.0 °C 11.3 °C 1009.4 hPa SE 3.5 km/h 6.1 km/h 84% 0.0 mm
04:31 14.1 °C 11.6 °C 1009.4 hPa SSE 3.5 km/h 8.7 km/h 85% 0.0 mm
04:36 14.0 °C 11.5 °C 1009.4 hPa SSE 5.0 km/h 9.7 km/h 85% 0.0 mm
04:39 14.0 °C 11.5 °C 1009.4 hPa SSE 2.6 km/h 9.7 km/h 85% 0.0 mm
04:42 14.1 °C 11.4 °C 1009.4 hPa SSE 2.6 km/h 11.1 km/h 84% 0.0 mm
04:45 14.1 °C 11.4 °C 1009.4 hPa SSE 7.2 km/h 11.1 km/h 84% 0.0 mm
04:50 14.1 °C 11.4 °C 1009.4 hPa SE 3.5 km/h 11.1 km/h 84% 0.0 mm
04:52 14.2 °C 11.6 °C 1009.4 hPa SSE 2.6 km/h 11.1 km/h 84% 0.0 mm
04:57 14.1 °C 11.3 °C 1009.4 hPa SSE 2.6 km/h 11.1 km/h 83% 0.0 mm
04:58 14.1 °C 11.3 °C 1009.4 hPa SSE 2.6 km/h 11.1 km/h 83% 0.0 mm
05:00 14.1 °C 11.3 °C 1009.4 hPa SSE 3.5 km/h 9.7 km/h 83% 0.0 mm
05:05 14.1 °C 11.3 °C 1009.4 hPa SSE 3.5 km/h 9.7 km/h 83% 0.0 mm
05:06 14.1 °C 11.1 °C 1009.4 hPa SSE 6.1 km/h 11.1 km/h 82% 0.0 mm
05:11 14.2 °C 11.2 °C 1009.4 hPa South 5.0 km/h 11.1 km/h 82% 0.0 mm
05:12 14.2 °C 11.2 °C 1009.4 hPa South 3.5 km/h 11.1 km/h 82% 0.0 mm
05:17 14.1 °C 11.1 °C 1009.4 hPa SE 5.0 km/h 11.1 km/h 82% 0.0 mm
Waitara, Taranaki. New Zealand Historic Data
Compliments of Weather Underground - 2.25 mb